Time;durP1;ratioP1;P1;durP2;ratioP2;P2;SDS_P1;SDS_P2;PMS_P1;PMS_P2;Temp;Humidity;BMP_temperature;BMP_pressure;BME280_temperature;BME280_humidity;BME280_pressure;Samples;Min_cycle;Max_cycle;Signal;HPM_P1;HPM_P2
2021/06/15 00:01:12;;;;;;;0.52;0.30;;;;;;;17.76;81.43;99571.38;6139029;23;20029;-87
2021/06/15 00:03:39;;;;;;;0.57;0.35;;;;;;;17.77;81.25;99566.75;6140531;23;20045;-83
2021/06/15 00:06:05;;;;;;;0.50;0.30;;;;;;;17.76;81.46;99570.53;6115784;23;20006;-84
2021/06/15 00:08:31;;;;;;;0.35;0.30;;;;;;;17.77;81.43;99572.22;6085252;23;20145;-82
2021/06/15 00:10:57;;;;;;;0.30;0.30;;;;;;;17.76;81.44;99570.53;6139547;23;20037;-83
2021/06/15 00:13:22;;;;;;;0.30;0.30;;;;;;;17.70;81.79;99572.16;6113483;23;20041;-85
2021/06/15 00:15:49;;;;;;;0.35;0.25;;;;;;;17.68;81.84;99576.13;6117325;23;20022;-84
2021/06/15 00:18:16;;;;;;;0.20;0.20;;;;;;;17.65;81.97;99582.00;6113458;23;20026;-83
2021/06/15 00:20:42;;;;;;;0.52;0.30;;;;;;;17.60;82.18;99575.22;6142200;23;20072;-84
2021/06/15 00:23:08;;;;;;;0.30;0.30;;;;;;;17.57;82.02;99569.31;6144647;23;20042;-84
2021/06/15 00:25:35;;;;;;;0.30;0.30;;;;;;;17.60;82.10;99572.50;6142279;23;20052;-86
2021/06/15 00:28:01;;;;;;;0.30;0.30;;;;;;;17.53;82.15;99560.66;6089836;23;20026;-83
2021/06/15 00:30:27;;;;;;;0.30;0.30;;;;;;;17.56;82.05;99568.47;6135525;23;20044;-84
2021/06/15 00:32:53;;;;;;;0.30;0.30;;;;;;;17.56;82.05;99565.75;6136306;23;20045;-82
2021/06/15 00:35:19;;;;;;;0.20;0.20;;;;;;;17.54;81.79;99565.09;6087280;23;20021;-84
2021/06/15 00:37:45;;;;;;;0.30;0.30;;;;;;;17.51;82.11;99561.91;6108767;23;20026;-82
2021/06/15 00:40:12;;;;;;;1.45;0.30;;;;;;;17.51;82.16;99562.75;6135364;23;20042;-83
2021/06/15 00:42:38;;;;;;;0.28;0.28;;;;;;;17.51;82.32;99568.22;6109051;23;20056;-82
2021/06/15 00:45:07;;;;;;;0.45;0.30;;;;;;;17.46;82.32;99565.22;6107857;23;20109;-84
2021/06/15 00:47:36;;;;;;;0.30;0.30;;;;;;;17.42;82.81;99563.94;6114863;23;20097;-84
2021/06/15 00:50:04;;;;;;;0.30;0.30;;;;;;;17.38;82.50;99562.66;6062854;23;20398;-83
2021/06/15 00:52:31;;;;;;;0.22;0.22;;;;;;;17.39;82.41;99569.81;6082437;23;20028;-83
2021/06/15 00:55:00;;;;;;;0.75;0.30;;;;;;;17.43;82.17;99565.63;6107472;23;20072;-84
2021/06/15 00:57:27;;;;;;;0.30;0.30;;;;;;;17.41;81.98;99559.53;6107186;23;20026;-85
2021/06/15 00:59:54;;;;;;;0.32;0.30;;;;;;;17.39;82.29;99567.06;6107154;23;20040;-84
2021/06/15 01:02:21;;;;;;;3.00;0.60;;;;;;;17.33;82.46;99565.13;6081688;23;20108;-85
2021/06/15 01:04:47;;;;;;;0.30;0.30;;;;;;;17.31;82.76;99559.84;6105425;23;20030;-84
2021/06/15 01:07:34;;;;;;;0.40;0.40;;;;;;;17.33;83.05;99559.66;6081857;23;20022;-84
2021/06/15 01:10:17;;;;;;;0.40;0.20;;;;;;;17.32;83.25;99552.50;6105306;23;20022;-85
2021/06/15 01:13:08;;;;;;;0.38;0.30;;;;;;;17.37;83.06;99550.03;6106552;23;20022;-84
2021/06/15 01:15:49;;;;;;;0.55;0.30;;;;;;;17.34;83.04;99561.38;6111839;23;20018;-84
2021/06/15 01:18:23;;;;;;;0.67;0.30;;;;;;;17.34;82.87;99559.47;6112799;23;20098;-84
2021/06/15 01:21:02;;;;;;;0.30;0.30;;;;;;;17.43;82.34;99565.63;6137203;23;20362;-83
2021/06/15 01:23:45;;;;;;;0.25;0.25;;;;;;;17.49;81.95;99553.91;6111652;23;20029;-84
2021/06/15 01:26:30;;;;;;;0.20;0.20;;;;;;;17.56;81.79;99553.97;6110917;23;20029;-84
2021/06/15 01:29:04;;;;;;;0.30;0.28;;;;;;;17.58;81.61;99557.34;6104586;23;20502;-85
2021/06/15 01:31:35;;;;;;;0.20;0.20;;;;;;;17.65;81.80;99562.84;6080186;23;20049;-84
2021/06/15 01:34:13;;;;;;;0.30;0.30;;;;;;;17.68;81.61;99557.84;6082655;23;20066;-85
2021/06/15 01:37:14;;;;;;;0.30;0.30;;;;;;;17.71;81.30;99556.59;6061726;23;20022;-85
2021/06/15 01:39:56;;;;;;;0.30;0.30;;;;;;;17.73;81.48;99562.69;6105058;23;20022;-83
2021/06/15 01:42:49;;;;;;;0.30;0.30;;;;;;;17.77;81.41;99561.28;6104936;23;20022;-84
2021/06/15 01:45:19;;;;;;;0.30;0.30;;;;;;;17.79;81.33;99559.19;6104782;23;20040;-84
2021/06/15 01:48:09;;;;;;;0.25;0.25;;;;;;;17.82;81.11;99562.38;6082199;23;20060;-84
2021/06/15 01:50:41;;;;;;;0.30;0.25;;;;;;;17.96;80.95;99566.06;6085283;23;20018;-83
2021/06/15 01:53:10;;;;;;;3.17;1.00;;;;;;;18.01;80.79;99574.47;6084381;23;20381;-84
2021/06/15 01:55:41;;;;;;;0.90;0.30;;;;;;;18.04;80.50;99563.16;6132151;23;20018;-84
2021/06/15 01:58:08;;;;;;;0.60;0.30;;;;;;;18.08;80.56;99560.84;6139165;23;20033;-84
2021/06/15 02:00:34;;;;;;;1.95;0.40;;;;;;;18.08;80.65;99567.16;6111899;23;20026;-85
2021/06/15 02:03:04;;;;;;;0.40;0.40;;;;;;;18.11;80.74;99556.88;6055794;23;20022;-83
2021/06/15 02:05:47;;;;;;;9.75;2.78;;;;;;;18.17;80.70;99556.91;6106652;23;20436;-84
2021/06/15 02:08:32;;;;;;;0.75;0.40;;;;;;;18.23;80.22;99550.59;6086380;23;20076;-83
2021/06/15 02:11:03;;;;;;;0.30;0.30;;;;;;;18.28;80.10;99552.72;6036930;23;20022;-83
2021/06/15 02:13:41;;;;;;;0.20;0.20;;;;;;;18.34;80.16;99551.91;6107187;23;20587;-84
2021/06/15 02:16:27;;;;;;;0.88;0.40;;;;;;;18.43;80.23;99545.25;6131806;23;20026;-83
2021/06/15 02:19:33;;;;;;;0.30;0.30;;;;;;;18.48;79.98;99545.47;6015943;23;20102;-84
2021/06/15 02:22:07;;;;;;;0.30;0.30;;;;;;;18.58;79.87;99546.97;5991753;23;20051;-84
2021/06/15 02:24:42;;;;;;;0.30;0.30;;;;;;;18.69;79.58;99538.16;6021798;23;20033;-84
2021/06/15 02:27:15;;;;;;;0.73;0.40;;;;;;;18.87;79.06;99546.66;6133826;23;20021;-83
2021/06/15 02:29:41;;;;;;;0.30;0.30;;;;;;;19.04;78.68;99550.66;6105725;23;20515;-84
2021/06/15 02:32:11;;;;;;;0.75;0.40;;;;;;;19.17;78.71;99551.75;6085946;23;20022;-84
2021/06/15 02:34:43;;;;;;;2.15;0.50;;;;;;;19.27;78.27;99546.72;6086079;23;20450;-84
2021/06/15 02:37:11;;;;;;;0.50;0.30;;;;;;;19.37;77.51;99552.59;6085597;23;20026;-84
2021/06/15 02:39:38;;;;;;;1.00;0.30;;;;;;;19.42;77.15;99544.59;6085218;23;20037;-83
2021/06/15 02:42:11;;;;;;;0.80;0.30;;;;;;;19.66;77.17;99551.34;6086308;23;20049;-84
2021/06/15 02:44:40;;;;;;;0.63;0.30;;;;;;;19.86;76.82;99553.25;6135798;23;20018;-84
2021/06/15 02:47:08;;;;;;;0.30;0.30;;;;;;;20.01;75.88;99547.50;6106989;23;20046;-84
2021/06/15 02:49:47;;;;;;;0.20;0.20;;;;;;;20.15;75.33;99546.41;6132487;23;20017;-84
2021/06/15 02:52:36;;;;;;;0.30;0.30;;;;;;;20.18;74.94;99537.72;6109505;23;20045;-85
2021/06/15 02:55:11;;;;;;;0.40;0.30;;;;;;;20.29;75.21;99536.19;6083866;23;20029;-84
2021/06/15 02:57:38;;;;;;;0.30;0.30;;;;;;;20.39;74.45;99544.81;6083742;23;20479;-86
2021/06/15 03:00:10;;;;;;;0.30;0.30;;;;;;;20.48;74.11;99549.03;6108777;23;20022;-85
2021/06/15 03:02:36;;;;;;;0.68;0.30;;;;;;;20.50;74.38;99546.09;6108424;23;20129;-84
2021/06/15 03:05:09;;;;;;;0.40;0.40;;;;;;;20.68;73.51;99544.28;6082923;23;20033;-84
2021/06/15 03:07:35;;;;;;;0.22;0.22;;;;;;;20.72;72.93;99539.19;6106676;23;20022;-87
2021/06/15 03:10:05;;;;;;;0.25;0.25;;;;;;;20.84;72.19;99540.22;6104812;23;20444;-84
2021/06/15 03:12:40;;;;;;;0.45;0.30;;;;;;;20.89;72.03;99542.28;6083815;23;20096;-86
2021/06/15 03:15:10;;;;;;;0.50;0.30;;;;;;;20.99;71.96;99528.03;6134803;23;20037;-84
2021/06/15 03:17:40;;;;;;;0.52;0.30;;;;;;;21.01;71.90;99536.91;6107293;23;20077;-85
2021/06/15 03:20:08;;;;;;;0.30;0.25;;;;;;;21.15;71.77;99538.50;6082378;23;20022;-85
2021/06/15 03:22:52;;;;;;;0.30;0.30;;;;;;;21.66;70.12;99545.72;6108126;23;20037;-84
2021/06/15 03:25:25;;;;;;;0.30;0.30;;;;;;;21.99;68.45;99539.06;6080414;23;20032;-87
2021/06/15 03:28:14;;;;;;;0.57;0.38;;;;;;;22.04;68.20;99547.44;6080013;23;20121;-85
2021/06/15 03:30:43;;;;;;;0.55;0.45;;;;;;;22.04;68.06;99544.69;6084699;23;20053;-84
2021/06/15 03:33:14;;;;;;;0.30;0.30;;;;;;;22.38;67.00;99537.78;6066232;23;20022;-83
2021/06/15 03:35:47;;;;;;;0.40;0.40;;;;;;;22.31;66.99;99535.09;6107882;23;20539;-83
2021/06/15 03:38:15;;;;;;;0.50;0.30;;;;;;;22.31;67.40;99537.88;6135475;23;20021;-84
2021/06/15 03:40:45;;;;;;;0.90;0.30;;;;;;;22.31;66.77;99540.63;6111485;23;20025;-86
2021/06/15 03:43:12;;;;;;;0.30;0.30;;;;;;;22.48;66.03;99542.72;6090014;23;20022;-85
2021/06/15 03:45:41;;;;;;;0.40;0.30;;;;;;;22.53;66.01;99540.13;6136754;23;20033;-84
2021/06/15 03:48:09;;;;;;;0.30;0.30;;;;;;;22.57;65.78;99541.34;6107736;23;20097;-84
2021/06/15 03:50:37;;;;;;;0.40;0.30;;;;;;;22.66;65.42;99545.44;6087121;23;20010;-86
2021/06/15 03:53:08;;;;;;;0.43;0.38;;;;;;;22.63;65.94;99546.78;6140675;23;20078;-85
2021/06/15 03:55:37;;;;;;;0.30;0.30;;;;;;;22.62;65.39;99549.75;6135904;23;20041;-85
2021/06/15 03:58:04;;;;;;;0.28;0.28;;;;;;;22.70;65.12;99552.19;6108464;23;20041;-85
2021/06/15 04:00:32;;;;;;;0.30;0.30;;;;;;;22.73;64.88;99546.22;6110667;23;20420;-84
2021/06/15 04:02:59;;;;;;;0.43;0.30;;;;;;;22.69;65.18;99556.03;6086200;23;20061;-87
2021/06/15 04:05:27;;;;;;;1.25;0.30;;;;;;;22.79;65.18;99553.56;6136685;23;20030;-84
2021/06/15 04:07:55;;;;;;;0.30;0.30;;;;;;;22.94;64.56;99552.31;6084500;23;20018;-85
2021/06/15 04:10:23;;;;;;;0.45;0.30;;;;;;;22.99;64.70;99549.69;6139985;23;20021;-84
2021/06/15 04:12:51;;;;;;;0.47;0.30;;;;;;;23.10;64.31;99546.97;6114012;23;20064;-87
2021/06/15 04:15:19;;;;;;;0.57;0.30;;;;;;;23.21;64.19;99552.75;6092402;23;20112;-84
2021/06/15 04:17:51;;;;;;;0.30;0.30;;;;;;;23.17;64.49;99546.88;6113363;23;20101;-85
2021/06/15 04:20:25;;;;;;;0.30;0.30;;;;;;;22.87;64.90;99557.91;6066504;23;20028;-86
2021/06/15 04:22:53;;;;;;;0.82;0.30;;;;;;;23.16;64.31;99556.22;6140944;23;20025;-85
2021/06/15 04:25:22;;;;;;;0.30;0.30;;;;;;;23.27;63.71;99558.16;6089946;23;20037;-85
2021/06/15 04:27:49;;;;;;;0.32;0.30;;;;;;;23.35;63.80;99554.22;6087740;23;20060;-84
2021/06/15 04:30:19;;;;;;;1.10;0.40;;;;;;;23.53;62.90;99554.13;6111469;23;20442;-83
2021/06/15 04:32:55;;;;;;;0.70;0.50;;;;;;;23.88;61.93;99558.00;6140588;23;20026;-85
2021/06/15 04:35:28;;;;;;;0.80;0.50;;;;;;;23.98;61.18;99553.56;6143002;23;20042;-87
2021/06/15 04:37:57;;;;;;;0.52;0.52;;;;;;;24.38;60.45;99563.84;6093941;23;20108;-84
2021/06/15 04:40:37;;;;;;;0.43;0.40;;;;;;;24.76;59.52;99554.16;6141599;23;20026;-85
2021/06/15 04:43:22;;;;;;;0.45;0.38;;;;;;;24.73;59.68;99554.66;6119709;23;20049;-86
2021/06/15 04:45:49;;;;;;;0.30;0.30;;;;;;;24.74;59.39;99557.16;6116210;23;20037;-86
2021/06/15 04:48:34;;;;;;;0.85;0.40;;;;;;;24.77;59.18;99553.91;6115555;23;20429;-86
2021/06/15 04:51:02;;;;;;;0.63;0.50;;;;;;;24.97;58.62;99556.25;6090962;23;20045;-84
2021/06/15 04:53:36;;;;;;;0.40;0.40;;;;;;;25.11;58.28;99550.41;6139260;23;20069;-86
2021/06/15 04:56:02;;;;;;;0.68;0.50;;;;;;;25.20;57.84;99549.75;6093062;23;20022;-83
2021/06/15 04:58:31;;;;;;;0.47;0.30;;;;;;;25.44;56.68;99563.44;6107953;23;20068;-84
2021/06/15 05:01:00;;;;;;;0.43;0.43;;;;;;;25.24;57.26;99550.94;6100539;23;20021;-82
2021/06/15 05:03:29;;;;;;;0.40;0.40;;;;;;;25.40;56.81;99553.97;6108416;23;20036;-83
2021/06/15 05:06:01;;;;;;;0.70;0.70;;;;;;;25.81;56.23;99555.50;6135789;23;20074;-85
2021/06/15 05:08:27;;;;;;;0.60;0.60;;;;;;;26.34;55.59;99558.75;6085842;23;20089;-83
2021/06/15 05:10:56;;;;;;;0.80;0.80;;;;;;;26.95;53.42;99548.44;6112167;23;20028;-83
2021/06/15 05:13:22;;;;;;;0.50;0.50;;;;;;;27.15;52.80;99554.19;6110033;23;20032;-85
2021/06/15 05:15:50;;;;;;;0.57;0.57;;;;;;;27.16;53.20;99555.03;6090751;23;20051;-85
2021/06/15 05:18:23;;;;;;;0.60;0.60;;;;;;;27.50;51.95;99550.09;6097974;23;20125;-86
2021/06/15 05:20:49;;;;;;;0.60;0.60;;;;;;;27.82;50.84;99554.78;6144067;23;20053;-84
2021/06/15 05:23:19;;;;;;;0.80;0.80;;;;;;;28.13;51.05;99551.09;6085551;23;20039;-84
2021/06/15 05:25:48;;;;;;;0.95;0.80;;;;;;;28.46;49.70;99563.00;6088928;23;20045;-86
2021/06/15 05:29:00;;;;;;;0.82;0.68;;;;;;;28.67;48.68;99550.00;6118135;23;20020;31
2021/06/15 05:31:26;;;;;;;0.70;0.70;;;;;;;28.86;47.80;99550.34;6147124;23;20022;-88
2021/06/15 05:33:57;;;;;;;0.70;0.70;;;;;;;28.85;47.90;99548.69;6139988;23;20028;-88
2021/06/15 05:36:28;;;;;;;0.70;0.70;;;;;;;29.07;47.83;99540.13;6154562;23;20013;-87
2021/06/15 05:38:56;;;;;;;1.45;0.70;;;;;;;29.48;47.54;99545.72;6098986;23;20029;-86
2021/06/15 05:41:27;;;;;;;0.80;0.80;;;;;;;29.89;46.20;99552.13;6150118;23;20021;-88
2021/06/15 05:43:53;;;;;;;0.60;0.60;;;;;;;29.70;45.95;99545.47;6149955;23;20036;-89
2021/06/15 05:46:20;;;;;;;0.80;0.80;;;;;;;29.77;46.77;99546.03;6152847;23;20009;-87
2021/06/15 05:48:47;;;;;;;0.63;0.60;;;;;;;30.22;44.46;99544.28;6176078;23;20014;-87
2021/06/15 05:51:13;;;;;;;0.70;0.70;;;;;;;30.47;43.96;99547.00;6151689;23;20465;-85
2021/06/15 05:53:42;;;;;;;0.70;0.70;;;;;;;30.58;43.69;99538.56;6179280;23;20061;-87
2021/06/15 05:56:11;;;;;;;0.95;0.70;;;;;;;30.84;43.09;99542.94;6111278;23;20021;-85
2021/06/15 05:58:39;;;;;;;0.60;0.60;;;;;;;31.06;42.65;99536.94;6148683;23;20032;-86
2021/06/15 06:01:07;;;;;;;0.70;0.70;;;;;;;31.21;42.24;99533.19;6168501;23;20292;-83
2021/06/15 06:03:50;;;;;;;0.75;0.75;;;;;;;31.40;41.95;99531.41;6148308;23;20020;-86
2021/06/15 06:09:04;;;;;;;0.77;0.77;;;;;;;31.96;40.98;99540.41;6121921;23;20002;-86
2021/06/15 06:11:31;;;;;;;0.80;0.80;;;;;;;32.09;41.77;99534.13;6117478;23;20025;-85
2021/06/15 06:13:57;;;;;;;0.70;0.70;;;;;;;32.56;40.85;99535.28;6092056;23;20430;-86
2021/06/15 06:16:23;;;;;;;0.70;0.70;;;;;;;32.35;40.78;99529.09;6118487;23;20041;-87
2021/06/15 06:18:50;;;;;;;0.90;0.70;;;;;;;32.51;39.75;99524.19;6094636;23;20026;-85
2021/06/15 06:21:16;;;;;;;0.98;0.80;;;;;;;32.55;40.11;99533.63;6114950;23;20135;-87
2021/06/15 06:23:46;;;;;;;1.15;0.88;;;;;;;32.80;39.35;99533.28;6090135;23;20361;-86
2021/06/15 06:26:12;;;;;;;1.00;0.90;;;;;;;32.92;39.66;99526.41;6114902;23;20044;-87
2021/06/15 06:28:39;;;;;;;0.80;0.80;;;;;;;32.99;38.74;99515.69;6114192;23;20021;-88
2021/06/15 06:31:06;;;;;;;0.82;0.80;;;;;;;33.13;38.54;99520.22;6092842;23;20088;-83
2021/06/15 06:33:34;;;;;;;0.80;0.80;;;;;;;33.34;39.38;99517.09;6139894;23;20026;-87
2021/06/15 06:36:00;;;;;;;0.90;0.90;;;;;;;33.47;37.97;99509.91;6096611;23;20025;-86
2021/06/15 06:38:26;;;;;;;0.90;0.90;;;;;;;33.67;37.98;99503.94;6116089;23;20033;-85
2021/06/15 06:40:57;;;;;;;1.23;0.80;;;;;;;33.56;37.52;99516.47;6091513;23;20034;-84
2021/06/15 06:43:33;;;;;;;0.70;0.70;;;;;;;34.21;37.03;99507.97;6093140;23;20048;-87
2021/06/15 06:45:59;;;;;;;1.02;0.80;;;;;;;34.43;36.44;99514.84;6048850;23;20026;-86
2021/06/15 06:48:26;;;;;;;0.75;0.75;;;;;;;34.96;36.28;99511.47;6097812;23;20032;-86
2021/06/15 06:50:55;;;;;;;0.80;0.80;;;;;;;34.71;35.73;99508.09;6121670;23;20089;-87
2021/06/15 06:53:22;;;;;;;0.90;0.90;;;;;;;34.46;36.26;99508.59;6070832;23;20022;-87
2021/06/15 06:55:48;;;;;;;0.85;0.85;;;;;;;34.91;35.42;99503.97;6147673;23;20022;-87
2021/06/15 06:58:15;;;;;;;0.98;0.98;;;;;;;35.28;34.78;99500.00;6096531;23;20063;-85
2021/06/15 07:03:40;;;;;;;0.90;0.90;;;;;;;35.57;35.12;99504.38;6172463;23;20068;-88
2021/06/15 07:06:09;;;;;;;1.00;0.90;;;;;;;35.46;34.78;99497.31;6119633;23;20013;31
2021/06/15 07:08:36;;;;;;;5.57;2.03;;;;;;;35.66;33.80;99504.44;6124224;23;20053;-86
2021/06/15 07:11:02;;;;;;;0.90;0.90;;;;;;;35.94;32.48;99505.06;6120529;23;20025;-87
2021/06/15 07:14:18;;;;;;;0.82;0.82;;;;;;;36.31;32.21;99502.94;6145660;23;20032;31
2021/06/15 07:16:47;;;;;;;;;;;;;;;36.14;32.83;99501.72;6148412;23;20052;-85
2021/06/15 07:19:15;;;;;;;1.00;1.00;;;;;;;36.29;32.74;99499.63;6145089;23;19973;-88
2021/06/15 07:21:44;;;;;;;1.00;1.00;;;;;;;36.26;32.73;99494.66;6101247;23;20040;-86
2021/06/15 07:24:11;;;;;;;0.43;0.35;;;;;;;35.66;33.18;99488.38;6125155;23;20024;-86
2021/06/15 07:29:37;;;;;;;1.10;1.10;;;;;;;35.81;33.54;99487.16;6141438;23;20025;-85
2021/06/15 07:32:06;;;;;;;0.20;0.20;;;;;;;34.81;34.62;99487.34;6190835;23;20024;-88
2021/06/15 07:37:43;;;;;;;0.10;0.10;;;;;;;34.37;35.02;99482.41;6154014;23;20028;-89
2021/06/15 07:40:22;;;;;;;0.28;0.20;;;;;;;33.42;36.38;99467.91;6147509;23;20020;-88
2021/06/15 07:43:23;;;;;;;0.47;0.20;;;;;;;32.88;37.00;99475.78;6107838;23;20025;31
2021/06/15 07:46:24;;;;;;;0.40;0.40;;;;;;;32.85;37.52;99470.78;6120686;23;20267;31
2021/06/15 07:48:53;;;;;;;1.20;1.10;;;;;;;34.44;34.78;99478.00;6120143;23;20157;-85
2021/06/15 07:51:28;;;;;;;1.33;1.23;;;;;;;35.64;32.86;99458.91;6094429;23;20063;-88
2021/06/15 07:53:56;;;;;;;1.50;1.40;;;;;;;36.33;31.70;99458.41;6146265;23;20061;-87
2021/06/15 07:56:26;;;;;;;1.20;1.20;;;;;;;37.00;30.76;99460.84;6097393;23;20078;-88
2021/06/15 07:59:20;;;;;;;1.00;1.00;;;;;;;37.69;30.10;99459.09;6170464;23;20036;-88
2021/06/15 08:01:49;;;;;;;0.52;0.52;;;;;;;37.39;30.21;99461.81;6166283;23;20049;-88
2021/06/15 08:04:17;;;;;;;0.25;0.20;;;;;;;35.50;32.40;99447.75;6101056;23;20030;-86
2021/06/15 08:06:45;;;;;;;1.30;1.30;;;;;;;35.62;32.01;99445.19;6112409;23;20022;-87
2021/06/15 08:09:12;;;;;;;1.20;1.20;;;;;;;36.34;31.29;99445.97;6164487;23;20029;-87
2021/06/15 08:11:38;;;;;;;2.80;1.83;;;;;;;37.27;30.29;99450.41;6198893;23;20022;-87
2021/06/15 08:14:17;;;;;;;1.40;1.30;;;;;;;37.91;29.76;99450.41;6154324;23;20941;31
2021/06/15 08:16:42;;;;;;;0.35;0.13;;;;;;;36.26;31.49;99441.16;6098789;23;20021;-87
2021/06/15 08:19:10;;;;;;;0.40;0.20;;;;;;;34.92;33.51;99438.22;6151656;23;20045;-88
2021/06/15 08:27:49;;;;;;;0.65;0.20;;;;;;;33.11;36.45;99434.81;6164954;23;20147;31
2021/06/15 08:33:44;;;;;;;0.35;0.35;;;;;;;32.37;38.71;99426.91;6156354;23;20073;31
2021/06/15 08:36:11;;;;;;;0.30;0.30;;;;;;;32.26;37.65;99431.00;6106279;23;20055;-88
2021/06/15 08:55:06;;;;;;;1.40;1.30;;;;;;;34.05;34.88;99414.03;6155693;23;20025;-88
2021/06/15 09:00:48;;;;;;;1.20;1.20;;;;;;;36.39;31.80;99409.22;6188123;23;20072;-87
2021/06/15 09:03:25;;;;;;;1.20;1.20;;;;;;;36.92;30.63;99392.00;6126689;23;20832;31
2021/06/15 09:11:59;;;;;;;1.00;1.00;;;;;;;34.94;32.24;99390.13;6147251;23;20022;-87
2021/06/15 09:14:56;;;;;;;1.20;1.10;;;;;;;35.89;31.81;99387.03;6119554;23;20143;-88
2021/06/15 09:17:27;;;;;;;1.10;1.10;;;;;;;37.41;28.61;99380.53;6154708;23;20032;-86
2021/06/15 09:19:59;;;;;;;1.00;1.00;;;;;;;37.23;29.00;99390.19;6178286;23;20033;-87
2021/06/15 09:22:34;;;;;;;1.00;1.00;;;;;;;37.65;26.05;99389.25;6176443;23;20016;-89
2021/06/15 09:25:15;;;;;;;1.00;1.00;;;;;;;38.69;25.35;99381.31;6155465;23;20080;-88
2021/06/15 09:27:54;;;;;;;1.00;1.00;;;;;;;39.32;26.16;99372.81;6102060;23;20029;-88
2021/06/15 09:30:26;;;;;;;0.95;0.95;;;;;;;38.26;26.68;99376.84;6102500;23;20101;-88
2021/06/15 09:32:56;;;;;;;1.00;1.00;;;;;;;39.09;25.45;99376.03;6127005;23;20032;-87
2021/06/15 09:38:59;;;;;;;1.23;1.00;;;;;;;38.52;26.08;99368.19;6168050;23;20278;-89
2021/06/15 09:44:38;;;;;;;0.80;0.80;;;;;;;40.09;24.30;99356.00;6187727;23;20013;-86
2021/06/15 09:47:11;;;;;;;0.90;0.90;;;;;;;40.37;24.09;99354.09;6133236;23;20025;31
2021/06/15 09:49:59;;;;;;;1.00;1.00;;;;;;;39.81;25.22;99351.06;6119639;23;20025;-84
2021/06/15 09:55:32;;;;;;;0.80;0.80;;;;;;;38.19;26.26;99348.31;6186338;23;20028;31
2021/06/15 09:58:44;;;;;;;1.00;0.90;;;;;;;38.95;25.53;99345.22;6150414;23;20013;-88
2021/06/15 10:01:40;;;;;;;0.85;0.85;;;;;;;39.49;25.13;99350.78;6122781;23;20029;-86
2021/06/15 10:04:27;;;;;;;0.80;0.80;;;;;;;38.50;26.04;99348.75;6139809;23;20033;-88
2021/06/15 10:07:12;;;;;;;0.20;0.10;;;;;;;35.75;29.14;99337.34;6044446;23;20020;31
2021/06/15 10:12:49;;;;;;;0.10;0.10;;;;;;;33.57;32.31;99325.53;6165165;23;20017;31
2021/06/15 10:18:36;;;;;;;0.20;0.20;;;;;;;32.29;35.91;99326.00;6171114;23;20024;-86
2021/06/15 11:08:23;;;;;;;0.20;0.20;;;;;;;33.43;32.55;99273.38;6118945;23;20011;-88
2021/06/15 11:11:04;;;;;;;0.20;0.20;;;;;;;32.97;33.39;99265.88;6128184;23;20046;-86
2021/06/15 11:13:42;;;;;;;1.02;1.02;;;;;;;33.89;31.87;99261.19;6166131;23;20012;-87
2021/06/15 11:16:24;;;;;;;0.40;0.40;;;;;;;33.56;32.32;99264.16;6127737;23;21012;-82
2021/06/15 11:49:40;;;;;;;0.90;0.90;;;;;;;35.87;28.82;99223.34;6193285;23;19920;-88
2021/06/15 11:52:16;;;;;;;0.80;0.80;;;;;;;36.07;28.21;99213.47;6114384;23;20022;-88
2021/06/15 11:54:48;;;;;;;0.88;0.88;;;;;;;36.44;28.04;99211.94;6134091;23;20331;-89
2021/06/15 11:57:18;;;;;;;0.70;0.70;;;;;;;36.20;28.39;99207.66;6119839;23;20010;-88
2021/06/15 12:25:08;;;;;;;0.30;0.28;;;;;;;33.00;34.26;99186.84;6163193;23;20013;-88
2021/06/15 12:31:10;;;;;;;0.10;0.10;;;;;;;31.68;36.12;99169.19;6193682;23;20029;-87
2021/06/15 12:33:40;;;;;;;0.10;0.10;;;;;;;31.23;36.77;99165.03;6146176;23;20040;-88
2021/06/15 12:36:14;;;;;;;0.40;0.20;;;;;;;31.05;37.35;99168.63;6130135;23;20032;-84
2021/06/15 12:44:39;;;;;;;0.25;0.20;;;;;;;31.50;37.34;99167.22;6156286;23;21291;31
2021/06/15 12:52:51;;;;;;;0.20;0.20;;;;;;;30.38;38.25;99168.47;6185213;23;20389;-86
2021/06/15 12:58:45;;;;;;;0.60;0.20;;;;;;;30.49;38.56;99159.69;6163410;23;20036;-88
2021/06/15 13:01:29;;;;;;;0.20;0.20;;;;;;;30.53;39.08;99159.94;6090608;23;20085;31
2021/06/15 13:10:15;;;;;;;;;;;;;;;30.07;39.53;99151.16;6171939;23;20004;-87
2021/06/15 13:19:05;;;;;;;;;;;;;;;29.89;40.24;99139.59;6174726;23;20016;-87
2021/06/15 13:31:39;;;;;;;0.50;0.20;;;;;;;29.82;41.60;99127.94;6156640;23;20021;31
2021/06/15 13:49:00;;;;;;;0.73;0.20;;;;;;;29.58;42.17;99121.41;6119790;23;20030;-87
2021/06/15 13:51:32;;;;;;;0.10;0.10;;;;;;;29.83;41.69;99115.66;6047071;23;20027;-86
2021/06/15 13:56:55;;;;;;;0.22;0.20;;;;;;;30.18;40.73;99108.16;6151119;23;20223;-85
2021/06/15 14:09:13;;;;;;;0.30;0.30;;;;;;;30.14;40.66;99090.31;6168976;23;20028;31
2021/06/15 14:23:53;;;;;;;;;;;;;;;30.22;39.94;99078.56;6174837;23;20028;-86
2021/06/15 14:26:21;;;;;;;0.15;0.15;;;;;;;30.08;39.95;99074.75;6139073;23;19920;-85
2021/06/15 14:28:48;;;;;;;0.17;0.15;;;;;;;30.19;39.92;99081.94;6151696;23;20006;-85
2021/06/15 14:31:17;;;;;;;0.10;0.10;;;;;;;29.90;39.40;99077.16;6121694;23;20806;-88
2021/06/15 14:33:46;;;;;;;0.32;0.10;;;;;;;29.71;39.51;99070.63;6164249;23;20009;-86
2021/06/15 14:36:14;;;;;;;0.10;0.10;;;;;;;29.57;39.57;99070.44;6155574;23;20028;-87
2021/06/15 14:38:45;;;;;;;0.10;0.10;;;;;;;29.58;39.87;99074.91;6142022;23;20063;-85
2021/06/15 14:41:14;;;;;;;0.10;0.10;;;;;;;29.44;40.12;99071.94;6141633;23;20053;-87
2021/06/15 14:43:42;;;;;;;0.10;0.10;;;;;;;29.18;40.14;99067.63;6078358;23;20025;-85
2021/06/15 14:46:13;;;;;;;0.20;0.20;;;;;;;29.02;40.19;99062.16;6156465;23;20025;-83
2021/06/15 14:48:40;;;;;;;0.17;0.10;;;;;;;29.22;39.61;99057.63;6151919;23;20067;-86
2021/06/15 14:51:08;;;;;;;0.17;0.15;;;;;;;29.36;39.69;99055.81;6103581;23;20024;-85
2021/06/15 14:53:35;;;;;;;0.10;0.10;;;;;;;29.40;40.12;99054.13;6085074;23;20062;-86
2021/06/15 14:56:02;;;;;;;0.10;0.10;;;;;;;29.07;39.85;99059.38;6142268;23;20794;-78
2021/06/15 14:58:34;;;;;;;0.20;0.20;;;;;;;29.06;40.19;99049.34;6143406;23;20033;-87
2021/06/15 15:01:01;;;;;;;0.10;0.10;;;;;;;29.02;40.67;99048.25;6143156;23;20073;-88
2021/06/15 15:15:24;;;;;;;0.70;0.20;;;;;;;28.87;40.64;99042.75;6108376;23;20016;-88
2021/06/15 15:17:57;;;;;;;2.83;0.67;;;;;;;28.79;40.38;99035.81;6135517;23;20009;-85
2021/06/15 15:20:32;;;;;;;0.10;0.10;;;;;;;28.79;41.04;99048.91;6144036;23;20287;-86
2021/06/15 15:26:38;;;;;;;0.10;0.10;;;;;;;28.43;40.94;99051.84;6179095;23;20638;31
2021/06/15 15:29:14;;;;;;;0.30;0.10;;;;;;;28.36;41.01;99045.69;6139694;23;20873;31
2021/06/15 15:32:06;;;;;;;0.85;0.10;;;;;;;28.32;42.22;99044.59;6168562;23;20029;-86
2021/06/15 15:34:36;;;;;;;0.52;0.20;;;;;;;28.22;41.83;99041.84;6157318;23;20074;-87
2021/06/15 15:40:43;;;;;;;1.42;0.50;;;;;;;28.00;43.33;99042.19;6187655;23;20008;-87
2021/06/15 19:06:35;;;;;;;0.10;0.10;;;;;;;21.76;70.36;99060.91;6168100;23;20029;-86
2021/06/15 19:24:35;;;;;;;0.20;0.20;;;;;;;21.78;74.26;99072.50;6172428;23;20020;-84
2021/06/15 19:40:12;;;;;;;0.10;0.10;;;;;;;21.59;73.20;99088.28;6096321;23;20033;-85
2021/06/15 19:49:19;;;;;;;0.25;0.20;;;;;;;21.53;72.32;99094.72;6156414;22;20017;-84
2021/06/15 19:55:19;;;;;;;0.20;0.20;;;;;;;21.41;72.63;99081.78;6168692;22;20047;-87
2021/06/15 19:57:52;;;;;;;0.20;0.20;;;;;;;21.48;74.08;99097.34;6135450;22;20028;-85
2021/06/15 20:03:27;;;;;;;0.20;0.20;;;;;;;21.56;72.04;99088.75;6155241;22;20025;-82
2021/06/15 20:25:25;;;;;;;0.20;0.20;;;;;;;21.42;73.81;99077.13;6184877;22;20009;-87
2021/06/15 20:33:58;;;;;;;0.20;0.20;;;;;;;21.31;74.96;99072.41;6182715;22;20005;31
2021/06/15 20:36:32;;;;;;;0.30;0.30;;;;;;;21.25;75.38;99071.44;6182933;22;20029;-87
2021/06/15 20:39:14;;;;;;;0.40;0.40;;;;;;;21.16;75.67;99072.84;6164353;22;20067;-86
2021/06/15 20:41:51;;;;;;;0.43;0.30;;;;;;;21.03;77.07;99078.53;6085753;22;21035;-83
2021/06/15 21:19:58;;;;;;;0.10;0.10;;;;;;;20.01;81.33;99087.34;6157610;22;20705;-83
2021/06/15 21:22:40;;;;;;;0.20;0.20;;;;;;;19.89;81.05;99092.72;6153503;22;20832;-85
2021/06/15 21:25:16;;;;;;;0.50;0.20;;;;;;;19.80;82.17;99088.56;6206323;22;20017;-86
2021/06/15 21:27:49;;;;;;;0.10;0.10;;;;;;;19.86;81.40;99087.69;6151724;23;20090;-84
2021/06/15 21:30:17;;;;;;;0.10;0.10;;;;;;;19.86;81.04;99078.63;6125563;23;20057;-85